createdAt,value
2023-02-27T00:00:14.904Z,102803.84
2023-02-27T00:02:43.674Z,102813.53
2023-02-27T00:05:12.916Z,102799.53
2023-02-27T00:07:42.051Z,102804.16
2023-02-27T00:10:13.829Z,102752.09
2023-02-27T00:12:42.590Z,102808.41
2023-02-27T00:15:14.685Z,102805.78
2023-02-27T00:17:43.310Z,102810.88
2023-02-27T00:20:15.530Z,102811.75
2023-02-27T00:22:44.535Z,102808.84
2023-02-27T00:25:14.069Z,102806.25
2023-02-27T00:27:42.617Z,102801.91
2023-02-27T00:30:16.440Z,102807.53
2023-02-27T00:32:45.761Z,102797.25
2023-02-27T00:35:14.353Z,102801.91
2023-02-27T00:37:42.674Z,102796.44
2023-02-27T00:40:12.953Z,102796.16
2023-02-27T00:42:41.390Z,102788.38
2023-02-27T00:45:12.282Z,102799.16
2023-02-27T00:47:40.633Z,102800.13
2023-02-27T00:50:10.543Z,102777.94
2023-02-27T00:52:38.978Z,102789.09
2023-02-27T00:55:08.825Z,102795.31
2023-02-27T00:57:37.705Z,102795.09
2023-02-27T01:00:08.591Z,102796.88
2023-02-27T01:02:39.007Z,102801.03
2023-02-27T01:05:10.299Z,102802.34
2023-02-27T01:07:38.825Z,102799.75
2023-02-27T01:10:09.829Z,102793.06
2023-02-27T01:12:39.808Z,102765.06
2023-02-27T01:15:10.630Z,102797.13
2023-02-27T01:17:40.727Z,102787.38
2023-02-27T01:20:11.416Z,102784.84
2023-02-27T01:22:40.190Z,102785.19
2023-02-27T01:25:09.568Z,102788.28
2023-02-27T01:27:40.881Z,102789.69
2023-02-27T01:30:12.644Z,102781.59
2023-02-27T01:32:42.503Z,102794.03
2023-02-27T01:35:13.109Z,102780.97
2023-02-27T01:37:41.617Z,102779.66
2023-02-27T01:40:12.136Z,102779.72
2023-02-27T01:42:40.473Z,102785.69
2023-02-27T01:45:32.228Z,102782.88
2023-02-27T01:48:11.958Z,102776.22
2023-02-27T01:50:48.169Z,102745.81
2023-02-27T01:53:18.452Z,102667.81
2023-02-27T01:55:48.274Z,102782.16
2023-02-27T01:58:17.362Z,102784.97
2023-02-27T02:00:46.512Z,102781.75
2023-02-27T02:03:24.983Z,102793.19
2023-02-27T02:05:57.035Z,102788.63
2023-02-27T02:08:28.476Z,102795.09
2023-02-27T02:10:59.513Z,102792.44
2023-02-27T02:13:28.695Z,102791.72
2023-02-27T02:16:17.948Z,102790.03
2023-02-27T02:18:56.130Z,102788.13
2023-02-27T02:22:10.780Z,102790.59
2023-02-27T02:25:41.333Z,102782.59
2023-02-27T02:28:30.340Z,102784.53
2023-02-27T02:31:27.532Z,102796.97
2023-02-27T02:34:54.554Z,102790.59
2023-02-27T02:38:12.354Z,102755.38
2023-02-27T02:40:49.053Z,102788.63
2023-02-27T02:43:27.009Z,102778.66
2023-02-27T02:46:05.247Z,102787.66
2023-02-27T02:48:40.705Z,102789.22
2023-02-27T02:51:19.543Z,102785.91
2023-02-27T02:53:57.945Z,102783.78
2023-02-27T02:56:33.802Z,102795.41
2023-02-27T02:59:08.946Z,102789.03
2023-02-27T03:01:42.199Z,102789.03
2023-02-27T03:04:15.621Z,102730.63
2023-02-27T03:06:48.710Z,102783.25
2023-02-27T03:09:24.375Z,102688.13
2023-02-27T03:11:56.492Z,102787.50
2023-02-27T03:14:32.575Z,102765.06
2023-02-27T03:17:06.830Z,102789.47
2023-02-27T03:19:42.057Z,102706.72
2023-02-27T03:22:16.779Z,102788.28
2023-02-27T03:24:49.524Z,102763.56
2023-02-27T03:27:20.350Z,102787.59
2023-02-27T03:29:58.095Z,102802.56
2023-02-27T03:32:32.763Z,102794.25
2023-02-27T03:35:02.168Z,102796.34
2023-02-27T03:37:42.781Z,102773.88
2023-02-27T03:40:18.440Z,102796.06
2023-02-27T03:42:54.991Z,102789.16
2023-02-27T03:45:41.197Z,102797.78
2023-02-27T03:48:10.228Z,102737.78
2023-02-27T03:50:39.285Z,102790.56
2023-02-27T03:53:13.973Z,102793.44
2023-02-27T03:55:45.577Z,102786.00
2023-02-27T03:58:15.826Z,102788.78
2023-02-27T04:00:44.440Z,102781.59
2023-02-27T04:03:13.241Z,102795.53
2023-02-27T04:05:42.252Z,102791.94
2023-02-27T04:08:40.272Z,102779.38
2023-02-27T04:11:28.178Z,102798.53
2023-02-27T04:14:16.129Z,102798.88
2023-02-27T04:17:03.798Z,102799.44
2023-02-27T04:19:51.905Z,102806.06
2023-02-27T04:22:33.986Z,102798.19
2023-02-27T04:25:23.690Z,102806.75
2023-02-27T04:27:59.169Z,102800.06
2023-02-27T04:30:39.834Z,102799.03
2023-02-27T04:33:11.905Z,102791.22
2023-02-27T04:35:48.773Z,102798.34
2023-02-27T04:38:23.950Z,102784.03
2023-02-27T04:40:57.819Z,102810.75
2023-02-27T04:43:29.321Z,102787.41
2023-02-27T04:46:01.557Z,102813.75
2023-02-27T04:48:36.597Z,102818.03
2023-02-27T04:51:11.432Z,102819.78
2023-02-27T04:53:47.599Z,102811.69
2023-02-27T04:56:22.976Z,102815.06
2023-02-27T04:58:55.120Z,102824.94
2023-02-27T05:01:33.377Z,102817.97
2023-02-27T05:04:05.021Z,102831.72
2023-02-27T05:06:39.378Z,102862.28
2023-02-27T05:09:15.808Z,102832.97
2023-02-27T05:11:50.921Z,102844.28
2023-02-27T05:14:24.321Z,102784.97
2023-02-27T05:17:04.102Z,102838.69
2023-02-27T05:19:33.596Z,102840.56
2023-02-27T05:22:14.782Z,102821.19
2023-02-27T05:24:52.004Z,102844.78
2023-02-27T05:27:34.791Z,102841.31
2023-02-27T05:30:12.476Z,102847.41
2023-02-27T05:32:49.548Z,102846.84
2023-02-27T05:35:26.809Z,102832.75
2023-02-27T05:38:05.124Z,102840.44
2023-02-27T05:40:38.900Z,102843.94
2023-02-27T05:43:13.334Z,102844.63
2023-02-27T05:45:48.083Z,102840.84
2023-02-27T05:48:23.408Z,102817.84
2023-02-27T05:50:54.064Z,102679.59
2023-02-27T05:53:23.397Z,102844.56
2023-02-27T05:55:55.380Z,102842.78
2023-02-27T05:58:27.999Z,102855.16
2023-02-27T06:01:00.149Z,102862.97
2023-02-27T06:03:32.856Z,102855.00
2023-02-27T06:06:05.025Z,102855.16
2023-02-27T06:08:33.660Z,102862.97
2023-02-27T06:11:02.132Z,102859.28
2023-02-27T06:13:30.520Z,102867.19
2023-02-27T06:15:58.933Z,102854.09
2023-02-27T06:18:27.272Z,102862.97
2023-02-27T06:20:57.432Z,102757.63
2023-02-27T06:23:25.917Z,102864.78
2023-02-27T06:25:54.191Z,102871.75
2023-02-27T06:28:22.520Z,102868.50
2023-02-27T06:30:55.102Z,102863.13
2023-02-27T06:33:23.552Z,102885.22
2023-02-27T06:35:51.898Z,102877.00
2023-02-27T06:38:21.895Z,102887.78
2023-02-27T06:40:51.814Z,102908.91
2023-02-27T06:43:22.811Z,102794.09
2023-02-27T06:45:51.399Z,102896.41
2023-02-27T06:48:19.652Z,102902.03
2023-02-27T06:50:52.731Z,102907.00
2023-02-27T06:53:22.492Z,102906.25
2023-02-27T06:55:50.980Z,102903.09
2023-02-27T06:58:19.542Z,102917.75
2023-02-27T07:00:48.189Z,102913.50
2023-02-27T07:03:16.611Z,102907.44
2023-02-27T07:05:46.237Z,102910.13
2023-02-27T07:08:17.650Z,102916.56
2023-02-27T07:10:49.165Z,102928.81
2023-02-27T07:13:19.713Z,102924.47
2023-02-27T07:15:48.036Z,102890.03
2023-02-27T07:18:16.394Z,102917.97
2023-02-27T07:20:44.734Z,102933.31
2023-02-27T07:23:13.004Z,102859.88
2023-02-27T07:25:41.407Z,102936.91
2023-02-27T07:28:11.150Z,102921.31
2023-02-27T07:30:39.613Z,102899.97
2023-02-27T07:33:07.936Z,102938.91
2023-02-27T07:35:36.397Z,102951.06
2023-02-27T07:38:05.213Z,102938.78
2023-02-27T07:40:33.582Z,102936.63
2023-02-27T07:43:01.876Z,102933.00
2023-02-27T07:45:31.661Z,102939.66
2023-02-27T07:48:00.110Z,102945.34
2023-02-27T07:50:28.490Z,102948.22
2023-02-27T07:52:56.947Z,102953.56
2023-02-27T07:55:25.253Z,102958.63
2023-02-27T07:57:53.734Z,102946.66
2023-02-27T08:00:23.221Z,102945.44
2023-02-27T08:02:52.960Z,102946.47
2023-02-27T08:05:21.421Z,102947.97
2023-02-27T08:07:49.707Z,102934.97
2023-02-27T08:10:19.041Z,102942.13
2023-02-27T08:12:47.555Z,102951.19
2023-02-27T08:15:17.232Z,102949.50
2023-02-27T08:17:47.066Z,102945.50
2023-02-27T08:20:19.019Z,102956.81
2023-02-27T08:22:47.388Z,102938.44
2023-02-27T08:25:16.201Z,102974.41
2023-02-27T08:27:44.863Z,102872.41
2023-02-27T08:30:14.575Z,102968.84
2023-02-27T08:32:43.464Z,102968.97
2023-02-27T08:35:11.758Z,102976.78
2023-02-27T08:37:41.497Z,102981.41
2023-02-27T08:40:12.104Z,102981.72
2023-02-27T08:42:40.490Z,102985.53
2023-02-27T08:45:11.817Z,102988.72
2023-02-27T08:47:40.237Z,102982.72
2023-02-27T08:50:10.430Z,102991.59
2023-02-27T08:52:40.567Z,102994.09
2023-02-27T08:55:10.275Z,102993.66
2023-02-27T08:57:39.184Z,102990.03
2023-02-27T09:00:10.807Z,102979.47
2023-02-27T09:02:39.192Z,102998.78
2023-02-27T09:05:08.699Z,102996.22
2023-02-27T09:07:37.330Z,102986.28
2023-02-27T09:10:08.520Z,102994.38
2023-02-27T09:12:37.617Z,102997.16
2023-02-27T09:15:07.342Z,102998.78
2023-02-27T09:17:35.710Z,103002.16
2023-02-27T09:20:05.149Z,103009.31
2023-02-27T09:22:34.021Z,103003.06
2023-02-27T09:25:02.410Z,103011.97
2023-02-27T09:27:32.500Z,103012.00
2023-02-27T09:30:00.911Z,103008.28
2023-02-27T09:32:29.513Z,102911.25
2023-02-27T09:34:58.602Z,102997.41
2023-02-27T09:37:27.086Z,102998.25
2023-02-27T09:39:55.416Z,102996.78
2023-02-27T09:42:27.697Z,102996.59
2023-02-27T09:45:00.347Z,102988.94
2023-02-27T09:47:34.875Z,102992.16
2023-02-27T09:50:06.428Z,103011.75
2023-02-27T09:52:38.682Z,102983.84
2023-02-27T09:55:12.876Z,103007.38
2023-02-27T09:57:48.478Z,103009.78
2023-02-27T10:00:36.271Z,103008.16
2023-02-27T10:03:24.190Z,102999.63
2023-02-27T10:06:07.099Z,103002.84
2023-02-27T10:08:41.973Z,103003.56
2023-02-27T10:11:15.412Z,102986.31
2023-02-27T10:13:58.314Z,102992.72
2023-02-27T10:16:29.793Z,102993.03
2023-02-27T10:19:01.374Z,103010.41
2023-02-27T10:21:35.461Z,103004.75
2023-02-27T10:24:12.303Z,102969.09
2023-02-27T10:26:43.626Z,103003.75
2023-02-27T10:29:20.399Z,102985.09
2023-02-27T10:31:56.666Z,102997.13
2023-02-27T10:34:26.738Z,102997.31
2023-02-27T10:36:55.382Z,102971.81
2023-02-27T10:39:25.647Z,102986.72
2023-02-27T10:41:54.320Z,102977.66
2023-02-27T10:44:24.490Z,102989.53
2023-02-27T10:46:54.242Z,102996.16
2023-02-27T10:49:23.670Z,102986.34
2023-02-27T10:52:08.994Z,102948.16
2023-02-27T10:54:38.114Z,102956.81
2023-02-27T10:57:21.010Z,102998.41
2023-02-27T10:59:57.801Z,102976.69
2023-02-27T11:02:33.916Z,102978.25
2023-02-27T11:05:02.401Z,102987.50
2023-02-27T11:07:34.764Z,102975.56
2023-02-27T11:10:19.926Z,102967.81
2023-02-27T11:13:05.478Z,102974.72
2023-02-27T11:15:36.140Z,102979.59
2023-02-27T11:18:29.254Z,102978.13
2023-02-27T11:21:20.645Z,102962.13
2023-02-27T11:23:59.820Z,102958.78
2023-02-27T11:26:33.046Z,102954.44
2023-02-27T11:29:18.386Z,102960.91
2023-02-27T11:31:53.857Z,102952.31
2023-02-27T11:34:31.654Z,102943.28
2023-02-27T11:37:03.760Z,102917.91
2023-02-27T11:39:37.846Z,102942.50
2023-02-27T11:42:27.682Z,102947.53
2023-02-27T11:44:59.791Z,102920.88
2023-02-27T11:47:32.264Z,102935.59
2023-02-27T11:50:48.720Z,102934.88
2023-02-27T11:54:05.446Z,102931.38
2023-02-27T11:56:37.699Z,102932.16
2023-02-27T11:59:19.038Z,102920.56
2023-02-27T12:01:53.880Z,102930.81
2023-02-27T12:04:28.641Z,102921.47
2023-02-27T12:07:03.819Z,102910.69
2023-02-27T12:09:45.850Z,102907.81
2023-02-27T12:12:23.729Z,102918.81
2023-02-27T12:15:03.354Z,102898.53
2023-02-27T12:17:36.777Z,102901.75
2023-02-27T12:20:24.937Z,102897.81
2023-02-27T12:22:55.978Z,102908.06
2023-02-27T12:25:37.419Z,102909.44
2023-02-27T12:28:20.398Z,102916.75
2023-02-27T12:31:02.468Z,102912.97
2023-02-27T12:33:40.807Z,102923.22
2023-02-27T12:36:13.822Z,102924.69
2023-02-27T12:38:43.861Z,102910.72
2023-02-27T12:41:44.196Z,102906.09
2023-02-27T12:44:41.856Z,102902.59
2023-02-27T12:47:27.869Z,102879.81
2023-02-27T12:50:02.588Z,102864.69
2023-02-27T12:52:47.315Z,102874.28
2023-02-27T12:55:20.672Z,102891.47
2023-02-27T12:58:25.297Z,102888.88
2023-02-27T13:01:00.884Z,102891.81
2023-02-27T13:03:35.535Z,102870.41
2023-02-27T13:06:15.890Z,102877.94
2023-02-27T13:09:07.009Z,102897.53
2023-02-27T13:11:48.247Z,102902.69
2023-02-27T13:14:32.332Z,102895.53
2023-02-27T13:17:06.763Z,102895.13
2023-02-27T13:19:41.127Z,102893.69
2023-02-27T13:22:19.744Z,102895.16
2023-02-27T13:24:52.808Z,102868.00
2023-02-27T13:27:28.594Z,102889.19
2023-02-27T13:30:17.819Z,102877.44
2023-02-27T13:32:54.131Z,102878.22
2023-02-27T13:35:46.799Z,102893.06
2023-02-27T13:38:35.977Z,102876.78
2023-02-27T13:41:39.716Z,102885.09
2023-02-27T13:44:52.875Z,102891.94
2023-02-27T13:47:49.918Z,102887.59
2023-02-27T13:50:51.704Z,102887.50
2023-02-27T13:53:22.571Z,102887.22
2023-02-27T13:55:53.450Z,102872.84
2023-02-27T13:58:24.735Z,102882.91
2023-02-27T14:01:01.488Z,102882.03
2023-02-27T14:03:32.176Z,102879.66
2023-02-27T14:06:04.129Z,102879.75
2023-02-27T14:08:40.881Z,102868.06
2023-02-27T14:11:22.816Z,102870.94
2023-02-27T14:14:38.905Z,102885.47
2023-02-27T14:17:12.046Z,102879.88
2023-02-27T14:19:56.953Z,102887.41
2023-02-27T14:22:42.614Z,102881.41
2023-02-27T14:25:32.894Z,102891.38
2023-02-27T14:28:02.280Z,102891.53
2023-02-27T14:30:41.752Z,102888.06
2023-02-27T14:33:40.330Z,102882.34
2023-02-27T14:36:16.802Z,102890.41
2023-02-27T14:38:45.362Z,102823.88
2023-02-27T14:41:38.262Z,102879.81
2023-02-27T14:44:06.781Z,102887.25
2023-02-27T14:46:40.416Z,102878.13
2023-02-27T14:49:24.722Z,102875.59
2023-02-27T14:51:53.177Z,102876.50
2023-02-27T14:54:23.699Z,102879.69
2023-02-27T14:56:57.264Z,102877.59
2023-02-27T14:59:28.480Z,102867.91
2023-02-27T15:02:01.950Z,102873.25
2023-02-27T15:04:34.353Z,102871.84
2023-02-27T15:07:04.080Z,102877.72
2023-02-27T15:09:40.586Z,102867.75
2023-02-27T15:12:11.568Z,102851.34
2023-02-27T15:14:41.346Z,102870.44
2023-02-27T15:17:17.908Z,102868.81
2023-02-27T15:19:53.606Z,102857.53
2023-02-27T15:22:38.142Z,102864.91
2023-02-27T15:25:09.189Z,102870.22
2023-02-27T15:27:38.566Z,102864.75
2023-02-27T15:30:18.834Z,102863.38
2023-02-27T15:32:47.281Z,102848.53
2023-02-27T15:35:23.390Z,102860.69
2023-02-27T15:37:54.684Z,102871.66
2023-02-27T15:40:26.454Z,102865.53
2023-02-27T15:42:55.733Z,102869.09
2023-02-27T15:45:28.588Z,102874.72
2023-02-27T15:47:57.528Z,102878.25
2023-02-27T15:50:32.607Z,102866.91
2023-02-27T15:53:05.506Z,102857.38
2023-02-27T15:55:37.390Z,102871.47
2023-02-27T15:58:21.156Z,102877.78
2023-02-27T16:00:53.014Z,102878.03
2023-02-27T16:03:24.813Z,102867.09
2023-02-27T16:05:54.626Z,102876.16
2023-02-27T16:08:23.194Z,102868.09
2023-02-27T16:10:52.993Z,102864.34
2023-02-27T16:13:23.880Z,102870.41
2023-02-27T16:16:04.185Z,102862.59
2023-02-27T16:18:36.323Z,102878.88
2023-02-27T16:21:15.376Z,102880.59
2023-02-27T16:23:45.321Z,102876.53
2023-02-27T16:26:31.638Z,102880.41
2023-02-27T16:29:03.819Z,102877.88
2023-02-27T16:31:35.091Z,102876.44
2023-02-27T16:34:15.962Z,102884.72
2023-02-27T16:36:55.436Z,102883.31
2023-02-27T16:39:24.146Z,102850.41
2023-02-27T16:41:54.434Z,102885.34
2023-02-27T16:44:24.313Z,102878.78
2023-02-27T16:46:53.036Z,102876.16
2023-02-27T16:49:24.428Z,102889.03
2023-02-27T16:51:54.449Z,102887.78
2023-02-27T16:54:23.599Z,102878.25
2023-02-27T16:56:52.745Z,102864.00
2023-02-27T16:59:31.664Z,102880.69
2023-02-27T17:02:02.658Z,102882.53
2023-02-27T17:04:31.878Z,102848.97
2023-02-27T17:07:06.344Z,102876.88
2023-02-27T17:09:35.213Z,102874.03
2023-02-27T17:12:03.553Z,102881.19
2023-02-27T17:14:31.868Z,102880.28
2023-02-27T17:17:00.213Z,102887.16
2023-02-27T17:19:28.848Z,102885.22
2023-02-27T17:21:57.460Z,102886.88
2023-02-27T17:24:27.231Z,102891.09
2023-02-27T17:26:55.752Z,102891.88
2023-02-27T17:29:24.962Z,102897.28
2023-02-27T17:31:53.695Z,102899.59
2023-02-27T17:34:22.357Z,102903.88
2023-02-27T17:36:51.168Z,102911.56
2023-02-27T17:39:19.466Z,102899.31
2023-02-27T17:41:49.325Z,102888.88
2023-02-27T17:44:17.606Z,102898.72
2023-02-27T17:46:45.889Z,102910.00
2023-02-27T17:49:15.108Z,102911.94
2023-02-27T17:51:43.351Z,102916.19
2023-02-27T17:54:11.733Z,102920.72
2023-02-27T17:56:40.152Z,102925.06
2023-02-27T17:59:10.884Z,102918.88
2023-02-27T18:01:39.336Z,102926.78
2023-02-27T18:04:11.255Z,102918.88
2023-02-27T18:06:40.020Z,102808.50
2023-02-27T18:09:08.350Z,102928.25
2023-02-27T18:11:37.960Z,102929.00
2023-02-27T18:14:06.909Z,102928.00
2023-02-27T18:16:36.637Z,102931.69
2023-02-27T18:19:06.885Z,102939.03
2023-02-27T18:21:35.450Z,102940.09
2023-02-27T18:24:04.164Z,102935.41
2023-02-27T18:26:34.672Z,102939.03
2023-02-27T18:29:07.585Z,102933.53
2023-02-27T18:31:40.020Z,102945.28
2023-02-27T18:34:08.994Z,102944.41
2023-02-27T18:36:38.088Z,102943.38
2023-02-27T18:39:07.900Z,102945.22
2023-02-27T18:41:36.854Z,102950.28
2023-02-27T18:44:05.947Z,102945.97
2023-02-27T18:46:37.932Z,102840.94
2023-02-27T18:49:06.655Z,102945.97
2023-02-27T18:51:34.915Z,102948.59
2023-02-27T18:54:05.146Z,102953.88
2023-02-27T18:56:33.754Z,102947.59
2023-02-27T18:59:05.192Z,102951.28
2023-02-27T19:01:39.132Z,102957.38
2023-02-27T19:04:09.724Z,102949.28
2023-02-27T19:06:40.791Z,102960.63
2023-02-27T19:09:12.318Z,102922.28
2023-02-27T19:11:41.065Z,102958.06
2023-02-27T19:14:13.627Z,102955.53
2023-02-27T19:16:44.257Z,102946.25
2023-02-27T19:19:12.717Z,102954.13
2023-02-27T19:21:41.304Z,102942.63
2023-02-27T19:24:10.885Z,102958.53
2023-02-27T19:26:39.575Z,102929.38
2023-02-27T19:29:08.265Z,102956.53
2023-02-27T19:31:36.609Z,102960.22
2023-02-27T19:34:06.490Z,102969.72
2023-02-27T19:36:35.632Z,102966.69
2023-02-27T19:39:05.250Z,102968.50
2023-02-27T19:41:33.812Z,102952.75
2023-02-27T19:44:02.164Z,102971.69
2023-02-27T19:46:33.996Z,102977.09
2023-02-27T19:49:06.431Z,102974.22
2023-02-27T19:51:35.429Z,102964.50
2023-02-27T19:54:04.087Z,102972.50
2023-02-27T19:56:32.777Z,102972.16
2023-02-27T19:59:02.290Z,102972.97
2023-02-27T20:01:32.820Z,102972.25
2023-02-27T20:04:02.726Z,102969.66
2023-02-27T20:06:41.592Z,102976.28
2023-02-27T20:09:11.535Z,102973.66
2023-02-27T20:11:40.293Z,102948.34
2023-02-27T20:14:09.022Z,102982.38
2023-02-27T20:16:37.664Z,102973.47
2023-02-27T20:19:06.998Z,102976.09
2023-02-27T20:21:37.170Z,102974.47
2023-02-27T20:24:06.336Z,102964.53
2023-02-27T20:26:37.558Z,102967.22
2023-02-27T20:29:10.513Z,102963.16
2023-02-27T20:31:42.397Z,102922.47
2023-02-27T20:34:13.277Z,102962.72
2023-02-27T20:36:44.306Z,102971.50
2023-02-27T20:39:13.712Z,102964.25
2023-02-27T20:41:42.089Z,102972.41
2023-02-27T20:44:11.494Z,102969.97
2023-02-27T20:46:42.398Z,102967.28
2023-02-27T20:49:14.427Z,102973.13
2023-02-27T20:51:45.031Z,102970.16
2023-02-27T20:54:19.955Z,102973.63
2023-02-27T20:56:51.884Z,102968.41
2023-02-27T20:59:22.152Z,102972.56
2023-02-27T21:01:52.382Z,102973.38
2023-02-27T21:04:23.202Z,102986.44
2023-02-27T21:06:54.652Z,102979.31
2023-02-27T21:09:22.998Z,102988.13
2023-02-27T21:11:51.246Z,102983.91
2023-02-27T21:14:19.564Z,102985.34
2023-02-27T21:16:47.838Z,102981.66
2023-02-27T21:19:16.216Z,102975.31
2023-02-27T21:21:44.605Z,102983.31
2023-02-27T21:24:14.690Z,102987.72
2023-02-27T21:26:43.561Z,102973.28
2023-02-27T21:29:14.782Z,102987.44
2023-02-27T21:31:45.729Z,102983.22
2023-02-27T21:34:17.189Z,102982.09
2023-02-27T21:36:46.337Z,102940.16
2023-02-27T21:39:19.634Z,102983.00
2023-02-27T21:41:49.245Z,102975.16
2023-02-27T21:44:20.569Z,102947.50
2023-02-27T21:46:49.503Z,102978.47
2023-02-27T21:49:19.995Z,102979.38
2023-02-27T21:51:48.898Z,102982.16
2023-02-27T21:54:20.150Z,102977.56
2023-02-27T21:56:49.632Z,102982.81
2023-02-27T21:59:19.180Z,102995.16
2023-02-27T22:01:48.592Z,102985.41
2023-02-27T22:04:18.701Z,102983.47
2023-02-27T22:06:47.920Z,102989.59
2023-02-27T22:09:18.196Z,102991.31
2023-02-27T22:11:46.863Z,102987.84
2023-02-27T22:14:15.159Z,102994.00
2023-02-27T22:16:43.929Z,102987.59
2023-02-27T22:19:19.715Z,102990.16
2023-02-27T22:21:48.108Z,102991.78
2023-02-27T22:24:18.299Z,102989.91
2023-02-27T22:26:47.790Z,102965.63
2023-02-27T22:29:17.032Z,102990.75
2023-02-27T22:31:45.636Z,102989.84
2023-02-27T22:34:18.166Z,102992.38
2023-02-27T22:36:48.501Z,103001.84
2023-02-27T22:39:18.254Z,102998.28
2023-02-27T22:41:47.128Z,102997.88
2023-02-27T22:44:17.619Z,102991.09
2023-02-27T22:46:48.671Z,102995.19
2023-02-27T22:49:19.433Z,102971.13
2023-02-27T22:51:50.825Z,102999.88
2023-02-27T22:54:22.762Z,102999.59
2023-02-27T22:56:52.383Z,103029.63
2023-02-27T22:59:21.101Z,103007.66
2023-02-27T23:01:50.387Z,102998.53
2023-02-27T23:04:18.815Z,103004.97
2023-02-27T23:06:47.158Z,103007.13
2023-02-27T23:09:17.745Z,102997.78
2023-02-27T23:11:47.738Z,102998.53
2023-02-27T23:14:16.462Z,102997.81
2023-02-27T23:16:46.499Z,103006.63
2023-02-27T23:19:17.390Z,103006.53
2023-02-27T23:21:45.921Z,103005.50
2023-02-27T23:24:17.271Z,103004.56
2023-02-27T23:26:49.357Z,103004.50
2023-02-27T23:29:18.658Z,103009.09
2023-02-27T23:31:47.089Z,103010.06
2023-02-27T23:34:15.580Z,103012.13
2023-02-27T23:36:43.908Z,103007.72
2023-02-27T23:39:12.257Z,103010.81
2023-02-27T23:41:40.627Z,103016.09
2023-02-27T23:44:10.358Z,103016.03
2023-02-27T23:46:39.559Z,103016.72
2023-02-27T23:49:08.748Z,103022.00
2023-02-27T23:51:37.329Z,103029.19
2023-02-27T23:54:05.880Z,103017.69
2023-02-27T23:56:34.219Z,103023.03
2023-02-27T23:59:05.347Z,103019.63
